createdAt,value
2022-11-24T00:00:17.369Z,10.10
2022-11-24T00:00:38.419Z,12.20
2022-11-24T00:00:59.473Z,13.10
2022-11-24T00:01:20.553Z,11.30
2022-11-24T00:01:41.615Z,11.10
2022-11-24T00:02:02.794Z,11.10
2022-11-24T00:02:24.109Z,9.70
2022-11-24T00:02:45.345Z,10.70
2022-11-24T00:03:06.579Z,9.70
2022-11-24T00:03:27.716Z,12.50
2022-11-24T00:03:48.750Z,10.20
2022-11-24T00:04:09.969Z,12.20
2022-11-24T00:04:31.216Z,10.90
2022-11-24T00:04:52.389Z,9.30
2022-11-24T00:05:13.439Z,12.10
2022-11-24T00:05:34.514Z,10.80
2022-11-24T00:05:55.546Z,9.10
2022-11-24T00:06:16.601Z,9.70
2022-11-24T00:06:37.666Z,7.90
2022-11-24T00:06:58.696Z,9.20
2022-11-24T00:07:19.822Z,9.50
2022-11-24T00:07:40.908Z,7.80
2022-11-24T00:08:01.938Z,8.70
2022-11-24T00:08:22.989Z,9.80
2022-11-24T00:08:44.041Z,10.80
2022-11-24T00:09:05.086Z,10.10
2022-11-24T00:09:26.251Z,10.20
2022-11-24T00:09:47.303Z,10.80
2022-11-24T00:10:08.350Z,10.10
2022-11-24T00:10:29.404Z,9.30
2022-11-24T00:10:50.457Z,9.40
2022-11-24T00:11:11.507Z,9.30
2022-11-24T00:11:32.573Z,9.50
2022-11-24T00:11:53.624Z,9.40
2022-11-24T00:12:14.677Z,10.10
2022-11-24T00:12:35.739Z,11.30
2022-11-24T00:12:56.784Z,11.50
2022-11-24T00:13:17.830Z,9.90
2022-11-24T00:13:38.898Z,10.50
2022-11-24T00:13:59.993Z,10.70
2022-11-24T00:14:21.064Z,10.70
2022-11-24T00:14:42.151Z,10.90
2022-11-24T00:15:03.203Z,10.30
2022-11-24T00:15:24.253Z,8.40
2022-11-24T00:15:45.304Z,10.80
2022-11-24T00:16:06.358Z,10.40
2022-11-24T00:16:27.469Z,10.60
2022-11-24T00:16:48.708Z,10.20
2022-11-24T00:17:09.770Z,9.70
2022-11-24T00:17:30.848Z,11.90
2022-11-24T00:17:51.883Z,10.90
2022-11-24T00:18:12.952Z,8.60
2022-11-24T00:18:33.999Z,10.20
2022-11-24T00:18:55.073Z,10.50
2022-11-24T00:19:19.709Z,11.60
2022-11-24T00:19:41.063Z,11.20
2022-11-24T00:20:02.106Z,10.40
2022-11-24T00:20:23.161Z,10.30
2022-11-24T00:20:44.209Z,11.40
2022-11-24T00:21:05.270Z,11.40
2022-11-24T00:21:26.331Z,10.20
2022-11-24T00:21:47.394Z,12.10
2022-11-24T00:22:08.437Z,11.00
2022-11-24T00:22:29.504Z,9.90
2022-11-24T00:22:50.542Z,9.90
2022-11-24T00:23:11.590Z,9.30
2022-11-24T00:23:32.649Z,9.60
2022-11-24T00:23:53.697Z,9.90
2022-11-24T00:24:14.751Z,9.30
2022-11-24T00:24:36.024Z,9.60
2022-11-24T00:24:57.183Z,9.40
2022-11-24T00:25:18.223Z,9.50
2022-11-24T00:25:39.309Z,9.40
2022-11-24T00:26:00.363Z,8.80
2022-11-24T00:26:21.405Z,9.20
2022-11-24T00:26:42.472Z,8.70
2022-11-24T00:27:03.521Z,9.10
2022-11-24T00:27:24.558Z,8.70
2022-11-24T00:27:45.632Z,8.80
2022-11-24T00:28:06.669Z,9.90
2022-11-24T00:28:27.717Z,10.20
2022-11-24T00:28:48.775Z,7.70
2022-11-24T00:29:09.828Z,9.90
2022-11-24T00:29:30.864Z,10.30
2022-11-24T00:29:51.948Z,10.10
2022-11-24T00:30:12.986Z,9.60
2022-11-24T00:30:34.149Z,10.30
2022-11-24T00:30:55.336Z,9.60
2022-11-24T00:31:17.407Z,9.20
2022-11-24T00:31:38.801Z,11.40
2022-11-24T00:31:59.866Z,9.70
2022-11-24T00:32:20.932Z,10.10
2022-11-24T00:32:42.050Z,10.00
2022-11-24T00:33:03.076Z,8.60
2022-11-24T00:33:24.131Z,10.90
2022-11-24T00:33:45.209Z,9.80
2022-11-24T00:34:06.252Z,10.60
2022-11-24T00:34:27.299Z,10.10
2022-11-24T00:34:48.359Z,9.90
2022-11-24T00:35:09.483Z,9.80
2022-11-24T00:35:30.502Z,10.70
2022-11-24T00:35:51.548Z,9.60
2022-11-24T00:36:12.598Z,10.00
2022-11-24T00:36:33.646Z,9.60
2022-11-24T00:36:54.836Z,10.80
2022-11-24T00:37:15.985Z,10.60
2022-11-24T00:37:37.050Z,10.10
2022-11-24T00:37:58.082Z,9.80
2022-11-24T00:38:19.130Z,8.80
2022-11-24T00:38:40.177Z,9.90
2022-11-24T00:39:01.227Z,9.20
2022-11-24T00:39:22.393Z,8.80
2022-11-24T00:39:43.453Z,8.70
2022-11-24T00:40:04.499Z,11.10
2022-11-24T00:40:25.553Z,9.70
2022-11-24T00:40:46.602Z,10.10
2022-11-24T00:41:07.638Z,9.40
2022-11-24T00:41:28.686Z,9.00
2022-11-24T00:41:49.827Z,9.40
2022-11-24T00:42:10.841Z,11.30
2022-11-24T00:42:31.910Z,11.80
2022-11-24T00:42:52.969Z,10.30
2022-11-24T00:43:14.017Z,11.40
2022-11-24T00:43:35.063Z,9.90
2022-11-24T00:43:56.172Z,9.10
2022-11-24T00:44:17.196Z,10.20
2022-11-24T00:44:38.259Z,11.60
2022-11-24T00:44:59.316Z,11.30
2022-11-24T00:45:20.366Z,12.00
2022-11-24T00:45:41.526Z,12.70
2022-11-24T00:46:02.622Z,12.20
2022-11-24T00:46:23.930Z,12.80
2022-11-24T00:46:45.150Z,12.40
2022-11-24T00:47:06.333Z,11.00
2022-11-24T00:47:27.435Z,10.50
2022-11-24T00:47:48.501Z,9.80
2022-11-24T00:48:09.563Z,11.80
2022-11-24T00:48:30.606Z,10.70
2022-11-24T00:48:51.662Z,9.60
2022-11-24T00:49:12.724Z,11.00
2022-11-24T00:49:33.760Z,11.10
2022-11-24T00:49:54.824Z,11.50
2022-11-24T00:50:15.867Z,10.70
2022-11-24T00:50:36.919Z,9.90
2022-11-24T00:50:57.987Z,10.40
2022-11-24T00:51:19.036Z,12.20
2022-11-24T00:51:40.095Z,11.40
2022-11-24T00:52:01.162Z,11.50
2022-11-24T00:52:22.194Z,11.50
2022-11-24T00:52:43.280Z,12.50
2022-11-24T00:53:04.443Z,13.90
2022-11-24T00:53:25.494Z,10.50
2022-11-24T00:53:46.555Z,9.90
2022-11-24T00:54:07.593Z,10.30
2022-11-24T00:54:28.629Z,12.30
2022-11-24T00:54:49.691Z,13.20
2022-11-24T00:55:10.741Z,11.90
2022-11-24T00:55:31.787Z,11.10
2022-11-24T00:55:52.836Z,12.50
2022-11-24T00:56:13.888Z,10.60
2022-11-24T00:56:34.950Z,9.60
2022-11-24T00:56:55.994Z,11.10
2022-11-24T00:57:17.036Z,9.70
2022-11-24T00:57:38.082Z,10.00
2022-11-24T00:57:59.138Z,9.80
2022-11-24T00:58:20.286Z,10.70
2022-11-24T00:58:41.332Z,10.80
2022-11-24T00:59:02.406Z,10.50
2022-11-24T00:59:23.446Z,10.30
2022-11-24T00:59:44.498Z,12.50
2022-11-24T01:00:05.575Z,12.20
2022-11-24T01:00:26.605Z,9.90
2022-11-24T01:00:47.647Z,9.70
2022-11-24T01:01:08.782Z,11.10
2022-11-24T01:01:29.934Z,11.30
2022-11-24T01:01:50.986Z,10.70
2022-11-24T01:02:12.112Z,11.10
2022-11-24T01:02:33.268Z,10.00
2022-11-24T01:02:54.455Z,10.30
2022-11-24T01:03:15.502Z,12.10
2022-11-24T01:03:36.765Z,12.70
2022-11-24T01:03:57.782Z,11.50
2022-11-24T01:04:18.827Z,8.30
2022-11-24T01:04:39.890Z,8.80
2022-11-24T01:05:00.938Z,9.70
2022-11-24T01:05:21.996Z,11.20
2022-11-24T01:05:43.041Z,9.70
2022-11-24T01:06:04.085Z,10.30
2022-11-24T01:06:25.145Z,11.00
2022-11-24T01:06:46.197Z,9.40
2022-11-24T01:07:07.331Z,11.20
2022-11-24T01:07:28.404Z,11.10
2022-11-24T01:07:49.589Z,9.90
2022-11-24T01:08:10.646Z,11.50
2022-11-24T01:08:31.748Z,11.20
2022-11-24T01:08:52.827Z,10.50
2022-11-24T01:09:13.866Z,11.90
2022-11-24T01:09:34.929Z,12.60
2022-11-24T01:09:55.986Z,9.70
2022-11-24T01:10:17.033Z,10.30
2022-11-24T01:10:38.163Z,12.50
2022-11-24T01:10:59.177Z,11.80
2022-11-24T01:11:20.231Z,10.90
2022-11-24T01:11:41.274Z,10.60
2022-11-24T01:12:02.323Z,9.50
2022-11-24T01:12:23.378Z,7.60
2022-11-24T01:12:44.484Z,8.70
2022-11-24T01:13:05.504Z,9.10
2022-11-24T01:13:26.552Z,10.10
2022-11-24T01:13:47.604Z,9.50
2022-11-24T01:14:08.853Z,11.40
2022-11-24T01:14:29.872Z,11.20
2022-11-24T01:14:50.938Z,9.30
2022-11-24T01:15:11.990Z,10.40
2022-11-24T01:15:33.100Z,9.30
2022-11-24T01:15:54.215Z,8.70
2022-11-24T01:16:15.352Z,9.50
2022-11-24T01:16:36.399Z,10.20
2022-11-24T01:16:57.441Z,10.30
2022-11-24T01:17:18.511Z,8.50
2022-11-24T01:17:39.583Z,9.20
2022-11-24T01:18:00.655Z,12.80
2022-11-24T01:18:21.707Z,10.60
2022-11-24T01:18:42.770Z,7.80
2022-11-24T01:19:03.843Z,10.00
2022-11-24T01:19:24.884Z,11.50
2022-11-24T01:19:45.956Z,10.10
2022-11-24T01:20:07.022Z,9.50
2022-11-24T01:20:28.058Z,12.20
2022-11-24T01:20:49.135Z,10.90
2022-11-24T01:21:10.505Z,9.90
2022-11-24T01:21:31.630Z,9.70
2022-11-24T01:21:52.680Z,10.30
2022-11-24T01:22:13.750Z,12.90
2022-11-24T01:22:34.779Z,12.90
2022-11-24T01:22:55.826Z,13.00
2022-11-24T01:23:16.902Z,11.20
2022-11-24T01:23:37.955Z,11.30
2022-11-24T01:23:59.019Z,9.60
2022-11-24T01:24:20.066Z,9.10
2022-11-24T01:24:41.245Z,9.60
2022-11-24T01:25:02.310Z,10.50
2022-11-24T01:25:23.343Z,8.90
2022-11-24T01:25:44.409Z,10.80
2022-11-24T01:26:05.465Z,11.00
2022-11-24T01:26:26.517Z,10.10
2022-11-24T01:26:47.568Z,11.80
2022-11-24T01:27:08.612Z,10.20
2022-11-24T01:27:29.660Z,10.40
2022-11-24T01:27:50.704Z,10.90
2022-11-24T01:28:11.763Z,11.30
2022-11-24T01:28:32.802Z,10.30
2022-11-24T01:28:53.859Z,10.20
2022-11-24T01:29:14.904Z,11.90
2022-11-24T01:29:35.950Z,10.30
2022-11-24T01:29:57.148Z,12.20
2022-11-24T01:30:18.186Z,10.10
2022-11-24T01:30:39.277Z,9.70
2022-11-24T01:31:00.378Z,9.20
2022-11-24T01:31:21.536Z,10.10
2022-11-24T01:31:42.597Z,10.10
2022-11-24T01:32:03.656Z,10.30
2022-11-24T01:32:24.707Z,13.00
2022-11-24T01:32:45.759Z,12.80
2022-11-24T01:33:06.811Z,10.80
2022-11-24T01:33:27.876Z,10.40
2022-11-24T01:33:48.924Z,11.00
2022-11-24T01:34:09.975Z,13.80
2022-11-24T01:34:31.255Z,9.80
2022-11-24T01:34:52.382Z,9.60
2022-11-24T01:35:13.451Z,9.40
2022-11-24T01:35:34.504Z,9.90
2022-11-24T01:35:55.554Z,10.20
2022-11-24T01:36:16.610Z,9.00
2022-11-24T01:36:37.648Z,8.70
2022-11-24T01:36:58.692Z,11.50
2022-11-24T01:37:19.775Z,13.80
2022-11-24T01:37:40.803Z,12.10
2022-11-24T01:38:01.858Z,12.10
2022-11-24T01:38:22.918Z,12.10
2022-11-24T01:38:43.954Z,11.80
2022-11-24T01:39:05.038Z,11.60
2022-11-24T01:39:26.059Z,13.90
2022-11-24T01:39:47.107Z,11.90
2022-11-24T01:40:08.148Z,10.20
2022-11-24T01:40:29.320Z,10.20
2022-11-24T01:40:50.368Z,9.80
2022-11-24T01:41:11.422Z,11.10
2022-11-24T01:41:32.506Z,11.60
2022-11-24T01:41:53.532Z,10.90
2022-11-24T01:42:14.593Z,10.50
2022-11-24T01:42:35.648Z,11.50
2022-11-24T01:42:56.699Z,12.50
2022-11-24T01:43:17.760Z,11.10
2022-11-24T01:43:38.792Z,9.10
2022-11-24T01:43:59.842Z,10.60
2022-11-24T01:44:20.902Z,10.50
2022-11-24T01:44:41.951Z,10.10
2022-11-24T01:45:02.993Z,9.80
2022-11-24T01:45:24.048Z,12.20
2022-11-24T01:45:45.253Z,12.30
2022-11-24T01:46:06.356Z,10.20
2022-11-24T01:46:27.453Z,11.80
2022-11-24T01:46:48.490Z,12.20
2022-11-24T01:47:09.555Z,13.20
2022-11-24T01:47:30.609Z,10.70
2022-11-24T01:47:51.673Z,8.90
2022-11-24T01:48:12.958Z,10.10
2022-11-24T01:48:34.176Z,11.10
2022-11-24T01:48:55.229Z,12.70
2022-11-24T01:49:16.278Z,12.60
2022-11-24T01:49:37.333Z,10.10
2022-11-24T01:49:58.401Z,12.80
2022-11-24T01:50:19.449Z,14.30
2022-11-24T01:50:40.491Z,10.70
2022-11-24T01:51:01.553Z,10.40
2022-11-24T01:51:22.605Z,13.70
2022-11-24T01:51:43.663Z,10.50
2022-11-24T01:52:04.712Z,11.00
2022-11-24T01:52:25.779Z,11.60
2022-11-24T01:52:46.802Z,12.20
2022-11-24T01:53:07.971Z,11.60
2022-11-24T01:53:29.019Z,12.30
2022-11-24T01:53:50.076Z,11.20
2022-11-24T01:54:11.118Z,12.60
2022-11-24T01:54:32.662Z,10.80
2022-11-24T01:54:53.808Z,9.70
2022-11-24T01:55:14.884Z,11.40
2022-11-24T01:55:35.902Z,12.80
2022-11-24T01:55:56.944Z,13.10
2022-11-24T01:56:17.992Z,13.50
2022-11-24T01:56:39.048Z,11.90
2022-11-24T01:57:00.101Z,10.70
2022-11-24T01:57:21.161Z,11.80
2022-11-24T01:57:42.270Z,13.20
2022-11-24T01:58:03.298Z,9.80
2022-11-24T01:58:24.444Z,12.20
2022-11-24T01:58:45.511Z,12.90
2022-11-24T01:59:06.561Z,12.90
2022-11-24T01:59:27.613Z,12.60
2022-11-24T01:59:48.655Z,13.20
2022-11-24T02:00:09.704Z,13.90
2022-11-24T02:00:30.761Z,14.30
2022-11-24T02:00:51.812Z,11.50
2022-11-24T02:01:12.903Z,12.20
2022-11-24T02:01:34.072Z,15.30
2022-11-24T02:01:55.172Z,12.70
2022-11-24T02:02:16.301Z,13.90
2022-11-24T02:02:37.408Z,13.60
2022-11-24T02:02:58.612Z,11.40
2022-11-24T02:03:19.662Z,13.40
2022-11-24T02:03:40.738Z,14.50
2022-11-24T02:04:01.777Z,14.80
2022-11-24T02:04:22.833Z,14.50
2022-11-24T02:04:43.884Z,16.50
2022-11-24T02:05:04.928Z,15.30
2022-11-24T02:05:25.978Z,10.50
2022-11-24T02:05:47.043Z,14.30
2022-11-24T02:06:08.092Z,12.80
2022-11-24T02:06:29.143Z,11.70
2022-11-24T02:06:50.191Z,14.60
2022-11-24T02:07:11.288Z,17.50
2022-11-24T02:07:32.437Z,14.20
2022-11-24T02:07:53.548Z,14.60
2022-11-24T02:08:14.627Z,17.90
2022-11-24T02:08:35.666Z,15.50
2022-11-24T02:08:56.836Z,13.70
2022-11-24T02:09:17.879Z,14.40
2022-11-24T02:09:38.935Z,14.20
2022-11-24T02:09:59.988Z,12.40
2022-11-24T02:10:21.057Z,14.00
2022-11-24T02:10:42.096Z,14.00
2022-11-24T02:11:03.144Z,12.30
2022-11-24T02:11:24.189Z,13.00
2022-11-24T02:11:45.249Z,13.60
2022-11-24T02:12:06.301Z,15.20
2022-11-24T02:12:27.360Z,13.70
2022-11-24T02:12:48.402Z,14.80
2022-11-24T02:13:09.484Z,15.50
2022-11-24T02:13:30.513Z,15.90
2022-11-24T02:13:51.550Z,13.40
2022-11-24T02:14:12.719Z,15.20
2022-11-24T02:14:34.055Z,17.40
2022-11-24T02:14:55.248Z,15.00
2022-11-24T02:15:16.301Z,13.10
2022-11-24T02:15:37.395Z,15.60
2022-11-24T02:15:58.480Z,14.60
2022-11-24T02:16:19.592Z,11.50
2022-11-24T02:16:40.621Z,12.50
2022-11-24T02:17:01.682Z,13.90
2022-11-24T02:17:22.735Z,14.50
2022-11-24T02:17:43.805Z,14.00
2022-11-24T02:18:04.845Z,14.80
2022-11-24T02:18:25.898Z,16.40
2022-11-24T02:18:46.947Z,14.60
2022-11-24T02:19:07.997Z,14.60
2022-11-24T02:19:29.151Z,14.70
2022-11-24T02:19:50.195Z,16.20
2022-11-24T02:20:11.251Z,13.90
2022-11-24T02:20:32.303Z,12.10
2022-11-24T02:20:53.352Z,12.60
2022-11-24T02:21:14.394Z,15.60
2022-11-24T02:21:35.436Z,14.10
2022-11-24T02:21:56.485Z,11.40
2022-11-24T02:22:17.538Z,13.70
2022-11-24T02:22:38.603Z,12.20
2022-11-24T02:22:59.643Z,12.50
2022-11-24T02:23:20.683Z,10.80
2022-11-24T02:23:41.725Z,12.70
2022-11-24T02:24:02.771Z,13.70
2022-11-24T02:24:23.830Z,14.40
2022-11-24T02:24:44.977Z,12.30
2022-11-24T02:25:06.036Z,14.80
2022-11-24T02:25:27.092Z,14.50
2022-11-24T02:25:48.139Z,12.20
2022-11-24T02:26:09.190Z,12.40
2022-11-24T02:26:30.234Z,12.10
2022-11-24T02:26:51.287Z,11.40
2022-11-24T02:27:12.344Z,10.70
2022-11-24T02:27:33.496Z,10.60
2022-11-24T02:27:54.518Z,10.60
2022-11-24T02:28:15.562Z,11.20
2022-11-24T02:28:36.721Z,13.30
2022-11-24T02:28:57.803Z,13.30
2022-11-24T02:29:18.829Z,13.70
2022-11-24T02:29:39.890Z,11.70
2022-11-24T02:30:00.946Z,13.20
2022-11-24T02:30:22.114Z,13.40
2022-11-24T02:30:43.203Z,16.90
2022-11-24T02:31:04.376Z,13.20
2022-11-24T02:31:25.521Z,10.40
2022-11-24T02:31:46.565Z,12.30
2022-11-24T02:32:07.612Z,14.40
2022-11-24T02:32:28.648Z,14.10
2022-11-24T02:32:49.695Z,14.20
2022-11-24T02:33:10.741Z,13.00
2022-11-24T02:33:31.788Z,12.40
2022-11-24T02:33:52.850Z,13.20
2022-11-24T02:34:13.903Z,14.10
2022-11-24T02:34:35.244Z,14.50
2022-11-24T02:34:56.390Z,16.60
2022-11-24T02:35:17.439Z,11.40
2022-11-24T02:35:38.480Z,11.20
2022-11-24T02:35:59.538Z,10.80
2022-11-24T02:36:20.590Z,13.00
2022-11-24T02:36:41.634Z,15.30
2022-11-24T02:37:02.682Z,13.60
2022-11-24T02:37:23.737Z,13.80
2022-11-24T02:37:44.825Z,15.00
2022-11-24T02:38:05.863Z,12.70
2022-11-24T02:38:26.908Z,14.50
2022-11-24T02:38:48.001Z,15.20
2022-11-24T02:39:09.066Z,16.10
2022-11-24T02:39:30.107Z,13.70
2022-11-24T02:39:51.145Z,13.90
2022-11-24T02:40:12.196Z,13.80
2022-11-24T02:40:33.242Z,14.10
2022-11-24T02:40:54.299Z,15.30
2022-11-24T02:41:15.364Z,14.90
2022-11-24T02:41:36.410Z,13.90
2022-11-24T02:41:57.449Z,17.30
2022-11-24T02:42:18.498Z,17.50
2022-11-24T02:42:39.541Z,15.40
2022-11-24T02:43:00.585Z,16.40
2022-11-24T02:43:21.653Z,16.60
2022-11-24T02:43:42.711Z,15.90
2022-11-24T02:44:03.852Z,14.50
2022-11-24T02:44:24.926Z,17.90
2022-11-24T02:44:45.943Z,16.90
2022-11-24T02:45:06.992Z,16.40
2022-11-24T02:45:28.044Z,13.50
2022-11-24T02:45:49.104Z,13.30
2022-11-24T02:46:10.219Z,13.90
2022-11-24T02:46:31.343Z,18.20
2022-11-24T02:46:52.364Z,18.20
2022-11-24T02:47:13.408Z,16.80
2022-11-24T02:47:34.456Z,14.60
2022-11-24T02:47:55.498Z,14.80
2022-11-24T02:48:16.549Z,14.30
2022-11-24T02:48:37.607Z,17.60
2022-11-24T02:48:58.647Z,15.90
2022-11-24T02:49:19.826Z,17.10
2022-11-24T02:49:40.881Z,16.00
2022-11-24T02:50:01.932Z,17.40
2022-11-24T02:50:22.979Z,14.50
2022-11-24T02:50:44.035Z,16.20
2022-11-24T02:51:05.094Z,17.10
2022-11-24T02:51:26.141Z,17.60
2022-11-24T02:51:47.188Z,16.00
2022-11-24T02:52:08.238Z,14.70
2022-11-24T02:52:29.293Z,16.90
2022-11-24T02:52:50.363Z,18.30
2022-11-24T02:53:11.420Z,19.20
2022-11-24T02:53:32.457Z,15.90
2022-11-24T02:53:53.496Z,16.40
2022-11-24T02:54:14.548Z,15.80
2022-11-24T02:54:36.011Z,15.30
2022-11-24T02:54:57.261Z,14.50
2022-11-24T02:55:18.302Z,13.60
2022-11-24T02:55:39.347Z,13.20
2022-11-24T02:56:00.392Z,15.30
2022-11-24T02:56:21.534Z,14.40
2022-11-24T02:56:42.539Z,17.20
2022-11-24T02:57:03.589Z,17.50
2022-11-24T02:57:24.635Z,16.50
2022-11-24T02:57:45.701Z,15.60
2022-11-24T02:58:06.721Z,19.00
2022-11-24T02:58:27.781Z,19.10
2022-11-24T02:58:48.847Z,18.10
2022-11-24T02:59:09.889Z,17.80
2022-11-24T02:59:30.932Z,16.90
2022-11-24T02:59:52.086Z,17.40
2022-11-24T03:00:13.152Z,17.10
2022-11-24T03:00:34.182Z,14.80
2022-11-24T03:00:55.240Z,18.60
2022-11-24T03:01:16.326Z,19.80
2022-11-24T03:01:37.468Z,17.60
2022-11-24T03:01:58.625Z,17.10
2022-11-24T03:02:19.765Z,17.70
2022-11-24T03:02:40.855Z,16.40
2022-11-24T03:03:01.982Z,14.80
2022-11-24T03:03:23.112Z,19.00
2022-11-24T03:03:44.113Z,17.00
2022-11-24T03:04:05.187Z,17.40
2022-11-24T03:04:26.209Z,15.10
2022-11-24T03:04:47.261Z,16.50
2022-11-24T03:05:08.408Z,18.40
2022-11-24T03:05:29.501Z,15.70
2022-11-24T03:05:50.528Z,13.60
2022-11-24T03:06:11.582Z,21.10
2022-11-24T03:06:32.628Z,21.50
2022-11-24T03:06:53.666Z,17.40
2022-11-24T03:07:14.832Z,17.90
2022-11-24T03:07:35.957Z,20.60
2022-11-24T03:07:57.072Z,18.60
2022-11-24T03:08:18.120Z,16.20
2022-11-24T03:08:39.169Z,16.20
2022-11-24T03:09:00.413Z,16.90
2022-11-24T03:09:21.425Z,15.00
2022-11-24T03:09:42.466Z,15.30
2022-11-24T03:10:03.520Z,13.90
2022-11-24T03:10:24.574Z,14.30
2022-11-24T03:10:45.676Z,17.70
2022-11-24T03:11:06.730Z,16.60
2022-11-24T03:11:27.786Z,17.20
2022-11-24T03:11:48.905Z,18.90
2022-11-24T03:12:09.921Z,17.10
2022-11-24T03:12:30.967Z,17.10
2022-11-24T03:12:52.030Z,16.60
2022-11-24T03:13:13.083Z,15.20
2022-11-24T03:13:34.156Z,13.00
2022-11-24T03:13:55.176Z,16.70
2022-11-24T03:14:16.229Z,18.10
2022-11-24T03:14:37.497Z,16.80
2022-11-24T03:14:58.603Z,17.50
2022-11-24T03:15:19.653Z,15.00
2022-11-24T03:15:40.708Z,16.20
2022-11-24T03:16:01.860Z,17.20
2022-11-24T03:16:23.023Z,16.80
2022-11-24T03:16:44.066Z,17.10
2022-11-24T03:17:05.117Z,15.20
2022-11-24T03:17:26.186Z,15.40
2022-11-24T03:17:47.269Z,15.70
2022-11-24T03:18:08.303Z,15.20
2022-11-24T03:18:29.358Z,18.00
2022-11-24T03:18:50.410Z,16.90
2022-11-24T03:19:11.516Z,17.20
2022-11-24T03:19:32.524Z,19.00
2022-11-24T03:19:53.578Z,16.90
2022-11-24T03:20:14.618Z,16.00
2022-11-24T03:20:35.672Z,15.10
2022-11-24T03:20:56.712Z,16.40
2022-11-24T03:21:17.774Z,15.20
2022-11-24T03:21:38.830Z,16.00
2022-11-24T03:21:59.875Z,16.50
2022-11-24T03:22:20.927Z,19.30
2022-11-24T03:22:41.975Z,17.50
2022-11-24T03:23:03.052Z,16.50
2022-11-24T03:23:24.073Z,17.20
2022-11-24T03:23:45.195Z,12.90
2022-11-24T03:24:06.307Z,13.60
2022-11-24T03:24:27.363Z,15.30
2022-11-24T03:24:48.401Z,14.20
2022-11-24T03:25:09.466Z,12.20
2022-11-24T03:25:30.517Z,12.50
2022-11-24T03:25:51.554Z,14.20
2022-11-24T03:26:12.620Z,15.90
2022-11-24T03:26:33.673Z,17.00
2022-11-24T03:26:54.710Z,13.20
2022-11-24T03:27:15.767Z,13.20
2022-11-24T03:27:36.831Z,16.20
2022-11-24T03:27:58.010Z,16.20
2022-11-24T03:28:19.015Z,14.20
2022-11-24T03:28:40.060Z,15.50
2022-11-24T03:29:01.120Z,14.40
2022-11-24T03:29:22.174Z,17.40
2022-11-24T03:29:43.221Z,17.00
2022-11-24T03:30:04.286Z,16.10
2022-11-24T03:30:25.331Z,16.90
2022-11-24T03:30:46.426Z,17.80
2022-11-24T03:31:07.575Z,11.80
2022-11-24T03:31:28.639Z,12.10
2022-11-24T03:31:49.685Z,14.50
2022-11-24T03:32:10.830Z,15.70
2022-11-24T03:32:31.844Z,15.50
2022-11-24T03:32:52.897Z,16.00
2022-11-24T03:33:13.936Z,13.80
2022-11-24T03:33:34.996Z,13.80
2022-11-24T03:33:56.045Z,15.60
2022-11-24T03:34:17.095Z,15.50
2022-11-24T03:34:38.268Z,13.50
2022-11-24T03:34:59.315Z,15.10
2022-11-24T03:35:20.426Z,16.70
2022-11-24T03:35:41.461Z,16.60
2022-11-24T03:36:02.490Z,16.90
2022-11-24T03:36:23.557Z,17.30
2022-11-24T03:36:44.619Z,16.50
2022-11-24T03:37:05.649Z,16.10
2022-11-24T03:37:26.714Z,16.70
2022-11-24T03:37:47.754Z,17.80
2022-11-24T03:38:08.804Z,14.20
2022-11-24T03:38:29.837Z,14.90
2022-11-24T03:38:50.879Z,14.00
2022-11-24T03:39:12.049Z,14.70
2022-11-24T03:39:33.053Z,13.80
2022-11-24T03:39:54.143Z,14.20
2022-11-24T03:40:15.185Z,14.10
2022-11-24T03:40:36.238Z,14.50
2022-11-24T03:40:57.281Z,14.50
2022-11-24T03:41:18.339Z,15.00
2022-11-24T03:41:39.378Z,14.50
2022-11-24T03:42:00.429Z,14.40
2022-11-24T03:42:21.479Z,13.60
2022-11-24T03:42:42.530Z,14.10
2022-11-24T03:43:03.571Z,12.70
2022-11-24T03:43:24.615Z,13.50
2022-11-24T03:43:45.664Z,15.80
2022-11-24T03:44:06.713Z,14.60
2022-11-24T03:44:27.878Z,15.70
2022-11-24T03:44:48.922Z,15.20
2022-11-24T03:45:44.063Z,17.10
2022-11-24T03:45:52.389Z,15.00
2022-11-24T03:46:04.020Z,16.70
2022-11-24T03:46:25.097Z,18.90
2022-11-24T03:46:46.187Z,16.00
2022-11-24T03:47:07.199Z,16.10
2022-11-24T03:47:28.261Z,18.50
2022-11-24T03:47:49.294Z,15.40
2022-11-24T03:48:10.355Z,15.00
2022-11-24T03:48:31.395Z,15.10
2022-11-24T03:48:52.445Z,12.70
2022-11-24T03:49:13.503Z,12.20
2022-11-24T03:49:34.760Z,15.60
2022-11-24T03:49:55.904Z,16.70
2022-11-24T03:50:16.912Z,14.70
2022-11-24T03:50:37.980Z,14.50
2022-11-24T03:50:59.032Z,13.30
2022-11-24T03:51:20.072Z,15.30
2022-11-24T03:51:41.116Z,14.80
2022-11-24T03:52:07.658Z,18.70
2022-11-24T03:52:29.263Z,14.90
2022-11-24T03:52:50.281Z,13.70
2022-11-24T03:53:11.327Z,13.80
2022-11-24T03:53:32.388Z,16.90
2022-11-24T03:53:53.427Z,16.70
2022-11-24T03:54:14.479Z,15.20
2022-11-24T03:54:35.805Z,16.90
2022-11-24T03:54:56.968Z,15.30
2022-11-24T03:55:18.018Z,16.90
2022-11-24T03:55:39.185Z,15.20
2022-11-24T03:56:00.233Z,13.20
2022-11-24T03:56:21.288Z,14.30
2022-11-24T03:56:42.340Z,17.40
2022-11-24T03:57:03.439Z,18.70
2022-11-24T03:57:24.452Z,16.30
2022-11-24T03:57:45.497Z,17.50
2022-11-24T03:58:06.561Z,16.60
2022-11-24T03:58:27.611Z,13.70
2022-11-24T03:58:48.733Z,18.80
2022-11-24T03:59:09.787Z,17.10
2022-11-24T03:59:30.831Z,17.70
2022-11-24T03:59:51.885Z,20.80
2022-11-24T04:00:12.933Z,15.60
2022-11-24T04:00:33.994Z,14.40
2022-11-24T04:00:55.142Z,17.50
2022-11-24T04:01:16.296Z,19.10
2022-11-24T04:01:37.446Z,18.20
2022-11-24T04:01:58.597Z,14.90
2022-11-24T04:02:19.725Z,15.20
2022-11-24T04:02:40.790Z,16.10
2022-11-24T04:03:01.919Z,17.30
2022-11-24T04:03:22.987Z,14.70
2022-11-24T04:03:44.033Z,16.70
2022-11-24T04:04:05.082Z,16.60
2022-11-24T04:04:26.139Z,14.70
2022-11-24T04:04:49.834Z,15.20
2022-11-24T04:05:10.918Z,16.90
2022-11-24T04:05:31.976Z,15.90
2022-11-24T04:05:53.016Z,16.00
2022-11-24T04:06:14.173Z,17.10
2022-11-24T04:06:35.237Z,14.40
2022-11-24T04:06:56.269Z,14.20
2022-11-24T04:07:17.350Z,15.40
2022-11-24T04:07:38.450Z,15.20
2022-11-24T04:07:59.478Z,16.10
2022-11-24T04:08:20.527Z,18.00
2022-11-24T04:08:41.594Z,15.80
2022-11-24T04:09:02.618Z,15.20
2022-11-24T04:09:23.662Z,16.90
2022-11-24T04:09:44.712Z,16.90
2022-11-24T04:10:05.763Z,14.70
2022-11-24T04:10:26.811Z,15.60
2022-11-24T04:10:47.898Z,14.30
2022-11-24T04:11:08.921Z,17.40
2022-11-24T04:11:30.103Z,15.70
2022-11-24T04:11:51.156Z,15.30
2022-11-24T04:12:12.199Z,15.60
2022-11-24T04:12:33.247Z,13.70
2022-11-24T04:12:54.302Z,16.30
2022-11-24T04:13:15.349Z,18.00
2022-11-24T04:13:36.397Z,16.70
2022-11-24T04:13:57.441Z,19.80
2022-11-24T04:14:18.556Z,16.10
2022-11-24T04:14:39.573Z,19.20
2022-11-24T04:15:00.626Z,14.00
2022-11-24T04:15:21.674Z,15.70
2022-11-24T04:15:42.935Z,15.60
2022-11-24T04:16:04.026Z,17.40
2022-11-24T04:16:25.087Z,17.20
2022-11-24T04:16:46.179Z,19.10
2022-11-24T04:17:07.218Z,15.10
2022-11-24T04:17:28.333Z,19.40
2022-11-24T04:17:49.381Z,19.20
2022-11-24T04:18:10.563Z,16.20
2022-11-24T04:18:31.748Z,16.50
2022-11-24T04:18:52.792Z,15.40
2022-11-24T04:19:13.850Z,16.20
2022-11-24T04:19:35.095Z,15.40
2022-11-24T04:19:56.099Z,15.40
2022-11-24T04:20:17.167Z,14.80
2022-11-24T04:20:38.211Z,18.40
2022-11-24T04:20:59.263Z,16.00
2022-11-24T04:21:20.360Z,15.20
2022-11-24T04:21:41.385Z,16.80
2022-11-24T04:22:02.440Z,14.20
2022-11-24T04:22:23.482Z,15.80
2022-11-24T04:22:44.553Z,17.30
2022-11-24T04:23:05.696Z,18.40
2022-11-24T04:23:26.745Z,18.50
2022-11-24T04:23:47.818Z,18.50
2022-11-24T04:24:08.899Z,16.70
2022-11-24T04:24:29.922Z,19.30
2022-11-24T04:24:50.987Z,18.60
2022-11-24T04:25:12.024Z,20.40
2022-11-24T04:25:33.076Z,20.10
2022-11-24T04:25:54.118Z,21.80
2022-11-24T04:26:15.214Z,16.70
2022-11-24T04:26:36.260Z,20.10
2022-11-24T04:26:57.313Z,16.70
2022-11-24T04:27:18.355Z,16.60
2022-11-24T04:27:39.411Z,17.00
2022-11-24T04:28:00.461Z,18.60
2022-11-24T04:28:21.516Z,22.80
2022-11-24T04:28:42.569Z,25.50
2022-11-24T04:29:03.636Z,29.40
2022-11-24T04:29:24.767Z,30.30
2022-11-24T04:29:45.779Z,32.40
2022-11-24T04:30:06.839Z,33.30
2022-11-24T04:30:27.886Z,34.90
2022-11-24T04:30:48.965Z,33.30
2022-11-24T04:31:10.068Z,35.00
2022-11-24T04:31:31.168Z,31.30
2022-11-24T04:31:52.292Z,25.80
2022-11-24T04:32:13.333Z,21.50
2022-11-24T04:32:34.361Z,24.90
2022-11-24T04:32:55.435Z,24.90
2022-11-24T04:33:16.481Z,27.80